sensor_id;sensor_type;location;lat;lon;timestamp;P1;durP1;ratioP1;P2;durP2;ratioP2
61015;SDS011;46902;52.920;6.536;2023-07-09T00:01:37;9.30;;;6.03;;
61015;SDS011;46902;52.920;6.536;2023-07-09T00:04:02;10.50;;;5.70;;
61015;SDS011;46902;52.920;6.536;2023-07-09T00:06:28;8.57;;;5.70;;
61015;SDS011;46902;52.920;6.536;2023-07-09T00:08:54;6.72;;;5.65;;
61015;SDS011;46902;52.920;6.536;2023-07-09T00:11:20;10.48;;;6.30;;
61015;SDS011;46902;52.920;6.536;2023-07-09T00:13:46;8.13;;;6.05;;
61015;SDS011;46902;52.920;6.536;2023-07-09T00:16:12;8.13;;;6.07;;
61015;SDS011;46902;52.920;6.536;2023-07-09T00:18:45;11.75;;;5.90;;
61015;SDS011;46902;52.920;6.536;2023-07-09T00:21:13;10.95;;;5.85;;
61015;SDS011;46902;52.920;6.536;2023-07-09T00:23:40;11.95;;;5.82;;
61015;SDS011;46902;52.920;6.536;2023-07-09T00:26:13;7.95;;;5.93;;
61015;SDS011;46902;52.920;6.536;2023-07-09T00:28:40;10.77;;;6.05;;
61015;SDS011;46902;52.920;6.536;2023-07-09T00:31:13;7.50;;;5.70;;
61015;SDS011;46902;52.920;6.536;2023-07-09T00:33:40;7.65;;;5.47;;
61015;SDS011;46902;52.920;6.536;2023-07-09T00:36:18;11.18;;;5.78;;
61015;SDS011;46902;52.920;6.536;2023-07-09T00:38:57;8.85;;;6.00;;
61015;SDS011;46902;52.920;6.536;2023-07-09T00:41:31;11.65;;;5.85;;
61015;SDS011;46902;52.920;6.536;2023-07-09T00:49:31;10.75;;;6.00;;
61015;SDS011;46902;52.920;6.536;2023-07-09T00:52:00;10.00;;;6.10;;
61015;SDS011;46902;52.920;6.536;2023-07-09T00:54:31;8.73;;;5.60;;
61015;SDS011;46902;52.920;6.536;2023-07-09T00:57:07;10.45;;;6.10;;
61015;SDS011;46902;52.920;6.536;2023-07-09T00:59:36;6.80;;;5.50;;
61015;SDS011;46902;52.920;6.536;2023-07-09T01:02:03;8.85;;;6.25;;
61015;SDS011;46902;52.920;6.536;2023-07-09T01:04:29;10.85;;;6.05;;
61015;SDS011;46902;52.920;6.536;2023-07-09T01:06:56;9.23;;;5.90;;
61015;SDS011;46902;52.920;6.536;2023-07-09T01:09:23;9.43;;;5.38;;
61015;SDS011;46902;52.920;6.536;2023-07-09T01:11:50;7.97;;;6.03;;
61015;SDS011;46902;52.920;6.536;2023-07-09T01:14:17;12.73;;;5.90;;
61015;SDS011;46902;52.920;6.536;2023-07-09T01:16:48;6.22;;;5.38;;
61015;SDS011;46902;52.920;6.536;2023-07-09T01:19:25;11.38;;;5.88;;
61015;SDS011;46902;52.920;6.536;2023-07-09T01:21:57;13.55;;;6.22;;
61015;SDS011;46902;52.920;6.536;2023-07-09T01:27:13;6.85;;;5.70;;
61015;SDS011;46902;52.920;6.536;2023-07-09T01:29:39;9.20;;;6.10;;
61015;SDS011;46902;52.920;6.536;2023-07-09T01:32:06;12.55;;;6.03;;
61015;SDS011;46902;52.920;6.536;2023-07-09T01:34:32;9.75;;;6.20;;
61015;SDS011;46902;52.920;6.536;2023-07-09T01:36:58;11.98;;;5.45;;
61015;SDS011;46902;52.920;6.536;2023-07-09T01:39:26;9.52;;;5.50;;
61015;SDS011;46902;52.920;6.536;2023-07-09T01:41:55;9.65;;;5.90;;
61015;SDS011;46902;52.920;6.536;2023-07-09T01:44:21;7.93;;;6.10;;
61015;SDS011;46902;52.920;6.536;2023-07-09T01:46:48;9.20;;;6.15;;
61015;SDS011;46902;52.920;6.536;2023-07-09T01:49:14;12.57;;;5.80;;
61015;SDS011;46902;52.920;6.536;2023-07-09T01:51:40;9.98;;;6.43;;
61015;SDS011;46902;52.920;6.536;2023-07-09T01:54:06;8.68;;;5.90;;
61015;SDS011;46902;52.920;6.536;2023-07-09T01:56:31;10.60;;;6.07;;
61015;SDS011;46902;52.920;6.536;2023-07-09T01:58:57;8.05;;;5.78;;
61015;SDS011;46902;52.920;6.536;2023-07-09T02:01:27;14.20;;;5.65;;
61015;SDS011;46902;52.920;6.536;2023-07-09T02:03:53;9.98;;;5.75;;
61015;SDS011;46902;52.920;6.536;2023-07-09T02:06:19;7.93;;;5.30;;
61015;SDS011;46902;52.920;6.536;2023-07-09T02:08:45;8.93;;;6.28;;
61015;SDS011;46902;52.920;6.536;2023-07-09T02:11:11;8.88;;;6.00;;
61015;SDS011;46902;52.920;6.536;2023-07-09T02:13:36;9.80;;;5.90;;
61015;SDS011;46902;52.920;6.536;2023-07-09T02:16:02;9.50;;;6.25;;
61015;SDS011;46902;52.920;6.536;2023-07-09T02:18:28;7.32;;;5.35;;
61015;SDS011;46902;52.920;6.536;2023-07-09T02:20:54;9.13;;;6.05;;
61015;SDS011;46902;52.920;6.536;2023-07-09T02:23:19;9.43;;;6.20;;
61015;SDS011;46902;52.920;6.536;2023-07-09T02:25:45;12.00;;;6.40;;
61015;SDS011;46902;52.920;6.536;2023-07-09T02:28:10;6.95;;;5.75;;
61015;SDS011;46902;52.920;6.536;2023-07-09T02:30:36;8.27;;;6.10;;
61015;SDS011;46902;52.920;6.536;2023-07-09T02:33:02;8.15;;;5.85;;
61015;SDS011;46902;52.920;6.536;2023-07-09T02:35:27;9.57;;;5.97;;
61015;SDS011;46902;52.920;6.536;2023-07-09T02:37:53;11.73;;;6.00;;
61015;SDS011;46902;52.920;6.536;2023-07-09T02:40:18;9.98;;;5.75;;
61015;SDS011;46902;52.920;6.536;2023-07-09T02:42:44;11.30;;;6.40;;
61015;SDS011;46902;52.920;6.536;2023-07-09T02:45:10;9.80;;;6.53;;
61015;SDS011;46902;52.920;6.536;2023-07-09T02:47:35;11.50;;;6.45;;
61015;SDS011;46902;52.920;6.536;2023-07-09T02:50:01;8.98;;;6.13;;
61015;SDS011;46902;52.920;6.536;2023-07-09T02:52:28;9.63;;;6.07;;
61015;SDS011;46902;52.920;6.536;2023-07-09T02:54:53;8.88;;;6.50;;
61015;SDS011;46902;52.920;6.536;2023-07-09T02:57:19;11.45;;;7.45;;
61015;SDS011;46902;52.920;6.536;2023-07-09T02:59:44;8.77;;;6.22;;
61015;SDS011;46902;52.920;6.536;2023-07-09T03:02:10;11.80;;;6.65;;
61015;SDS011;46902;52.920;6.536;2023-07-09T03:04:36;8.05;;;7.15;;
61015;SDS011;46902;52.920;6.536;2023-07-09T03:07:02;11.50;;;7.28;;
61015;SDS011;46902;52.920;6.536;2023-07-09T03:09:27;7.90;;;6.07;;
61015;SDS011;46902;52.920;6.536;2023-07-09T03:11:53;11.27;;;7.20;;
61015;SDS011;46902;52.920;6.536;2023-07-09T03:14:19;10.52;;;6.63;;
61015;SDS011;46902;52.920;6.536;2023-07-09T03:16:45;9.27;;;6.82;;
61015;SDS011;46902;52.920;6.536;2023-07-09T03:19:10;12.98;;;6.25;;
61015;SDS011;46902;52.920;6.536;2023-07-09T03:21:36;10.98;;;6.80;;
61015;SDS011;46902;52.920;6.536;2023-07-09T03:24:01;9.70;;;6.30;;
61015;SDS011;46902;52.920;6.536;2023-07-09T03:26:27;8.40;;;6.75;;
61015;SDS011;46902;52.920;6.536;2023-07-09T03:28:53;9.60;;;6.40;;
61015;SDS011;46902;52.920;6.536;2023-07-09T03:31:20;11.05;;;6.40;;
61015;SDS011;46902;52.920;6.536;2023-07-09T03:33:50;11.45;;;6.18;;
61015;SDS011;46902;52.920;6.536;2023-07-09T03:36:16;11.38;;;6.80;;
61015;SDS011;46902;52.920;6.536;2023-07-09T03:38:43;10.10;;;7.00;;
61015;SDS011;46902;52.920;6.536;2023-07-09T03:41:09;9.25;;;6.75;;
61015;SDS011;46902;52.920;6.536;2023-07-09T03:43:35;10.50;;;6.90;;
61015;SDS011;46902;52.920;6.536;2023-07-09T03:46:00;9.60;;;6.43;;
61015;SDS011;46902;52.920;6.536;2023-07-09T03:48:26;12.88;;;6.70;;
61015;SDS011;46902;52.920;6.536;2023-07-09T03:50:52;11.88;;;7.43;;
61015;SDS011;46902;52.920;6.536;2023-07-09T03:53:18;12.30;;;7.38;;
61015;SDS011;46902;52.920;6.536;2023-07-09T03:55:45;10.27;;;7.00;;
61015;SDS011;46902;52.920;6.536;2023-07-09T03:58:12;13.27;;;7.10;;
61015;SDS011;46902;52.920;6.536;2023-07-09T04:00:38;9.27;;;6.90;;
61015;SDS011;46902;52.920;6.536;2023-07-09T04:03:03;10.95;;;6.70;;
61015;SDS011;46902;52.920;6.536;2023-07-09T04:05:29;8.63;;;6.47;;
61015;SDS011;46902;52.920;6.536;2023-07-09T04:07:54;7.25;;;6.18;;
61015;SDS011;46902;52.920;6.536;2023-07-09T04:10:20;13.75;;;6.60;;
61015;SDS011;46902;52.920;6.536;2023-07-09T04:12:46;15.32;;;7.43;;
61015;SDS011;46902;52.920;6.536;2023-07-09T04:15:11;10.63;;;7.13;;
61015;SDS011;46902;52.920;6.536;2023-07-09T04:17:38;9.52;;;6.68;;
61015;SDS011;46902;52.920;6.536;2023-07-09T04:20:04;14.63;;;6.78;;
61015;SDS011;46902;52.920;6.536;2023-07-09T04:22:31;12.15;;;7.38;;
61015;SDS011;46902;52.920;6.536;2023-07-09T04:24:57;14.95;;;7.13;;
61015;SDS011;46902;52.920;6.536;2023-07-09T04:27:23;11.52;;;7.40;;
61015;SDS011;46902;52.920;6.536;2023-07-09T04:29:52;9.15;;;6.78;;
61015;SDS011;46902;52.920;6.536;2023-07-09T04:32:18;9.55;;;6.72;;
61015;SDS011;46902;52.920;6.536;2023-07-09T04:34:45;10.00;;;6.80;;
61015;SDS011;46902;52.920;6.536;2023-07-09T04:37:11;12.63;;;7.18;;
61015;SDS011;46902;52.920;6.536;2023-07-09T04:39:37;10.77;;;6.85;;
61015;SDS011;46902;52.920;6.536;2023-07-09T04:42:03;15.02;;;7.32;;
61015;SDS011;46902;52.920;6.536;2023-07-09T04:44:30;8.75;;;7.10;;
61015;SDS011;46902;52.920;6.536;2023-07-09T04:46:56;12.18;;;7.22;;
61015;SDS011;46902;52.920;6.536;2023-07-09T04:49:21;10.70;;;7.32;;
61015;SDS011;46902;52.920;6.536;2023-07-09T04:51:47;10.15;;;7.35;;
61015;SDS011;46902;52.920;6.536;2023-07-09T04:54:13;12.48;;;6.80;;
61015;SDS011;46902;52.920;6.536;2023-07-09T04:56:40;13.20;;;7.35;;
61015;SDS011;46902;52.920;6.536;2023-07-09T04:59:09;10.93;;;6.88;;
61015;SDS011;46902;52.920;6.536;2023-07-09T05:01:36;11.27;;;7.22;;
61015;SDS011;46902;52.920;6.536;2023-07-09T05:04:01;12.10;;;7.07;;
61015;SDS011;46902;52.920;6.536;2023-07-09T05:06:27;9.40;;;7.05;;
61015;SDS011;46902;52.920;6.536;2023-07-09T05:08:53;11.65;;;6.80;;
61015;SDS011;46902;52.920;6.536;2023-07-09T05:11:19;9.88;;;7.47;;
61015;SDS011;46902;52.920;6.536;2023-07-09T05:13:44;10.88;;;7.50;;
61015;SDS011;46902;52.920;6.536;2023-07-09T05:16:10;9.40;;;7.13;;
61015;SDS011;46902;52.920;6.536;2023-07-09T05:18:36;12.02;;;6.82;;
61015;SDS011;46902;52.920;6.536;2023-07-09T05:21:02;12.50;;;7.15;;
61015;SDS011;46902;52.920;6.536;2023-07-09T05:23:27;12.50;;;8.05;;
61015;SDS011;46902;52.920;6.536;2023-07-09T05:25:57;11.85;;;7.70;;
61015;SDS011;46902;52.920;6.536;2023-07-09T05:28:23;12.82;;;7.28;;
61015;SDS011;46902;52.920;6.536;2023-07-09T05:30:49;12.48;;;7.95;;
61015;SDS011;46902;52.920;6.536;2023-07-09T05:33:15;9.93;;;7.03;;
61015;SDS011;46902;52.920;6.536;2023-07-09T05:35:42;9.35;;;7.50;;
61015;SDS011;46902;52.920;6.536;2023-07-09T05:38:07;11.38;;;8.20;;
61015;SDS011;46902;52.920;6.536;2023-07-09T05:40:33;9.50;;;7.60;;
61015;SDS011;46902;52.920;6.536;2023-07-09T05:42:58;11.07;;;7.50;;
61015;SDS011;46902;52.920;6.536;2023-07-09T05:45:24;12.13;;;7.20;;
61015;SDS011;46902;52.920;6.536;2023-07-09T05:47:50;9.95;;;8.15;;
61015;SDS011;46902;52.920;6.536;2023-07-09T05:50:15;13.07;;;7.80;;
61015;SDS011;46902;52.920;6.536;2023-07-09T05:52:41;10.63;;;8.15;;
61015;SDS011;46902;52.920;6.536;2023-07-09T05:55:06;10.23;;;8.02;;
61015;SDS011;46902;52.920;6.536;2023-07-09T05:57:32;11.10;;;8.05;;
61015;SDS011;46902;52.920;6.536;2023-07-09T05:59:58;10.80;;;8.27;;
61015;SDS011;46902;52.920;6.536;2023-07-09T06:02:23;11.40;;;9.20;;
61015;SDS011;46902;52.920;6.536;2023-07-09T06:04:49;15.15;;;8.70;;
61015;SDS011;46902;52.920;6.536;2023-07-09T06:07:15;12.40;;;8.68;;
61015;SDS011;46902;52.920;6.536;2023-07-09T06:09:41;12.15;;;8.93;;
61015;SDS011;46902;52.920;6.536;2023-07-09T06:12:07;12.45;;;8.88;;
61015;SDS011;46902;52.920;6.536;2023-07-09T06:14:33;11.73;;;9.00;;
61015;SDS011;46902;52.920;6.536;2023-07-09T06:16:59;11.77;;;9.18;;
61015;SDS011;46902;52.920;6.536;2023-07-09T06:19:25;12.82;;;9.20;;
61015;SDS011;46902;52.920;6.536;2023-07-09T06:21:51;14.20;;;10.13;;
61015;SDS011;46902;52.920;6.536;2023-07-09T06:24:16;14.63;;;9.75;;
61015;SDS011;46902;52.920;6.536;2023-07-09T06:26:42;11.82;;;9.90;;
61015;SDS011;46902;52.920;6.536;2023-07-09T06:29:08;12.55;;;9.75;;
61015;SDS011;46902;52.920;6.536;2023-07-09T06:31:33;13.20;;;9.77;;
61015;SDS011;46902;52.920;6.536;2023-07-09T06:34:01;18.98;;;10.07;;
61015;SDS011;46902;52.920;6.536;2023-07-09T06:36:26;15.98;;;10.05;;
61015;SDS011;46902;52.920;6.536;2023-07-09T06:38:52;16.10;;;9.18;;
61015;SDS011;46902;52.920;6.536;2023-07-09T06:41:18;13.50;;;9.88;;
61015;SDS011;46902;52.920;6.536;2023-07-09T06:43:43;14.40;;;9.30;;
61015;SDS011;46902;52.920;6.536;2023-07-09T06:46:11;14.25;;;10.13;;
61015;SDS011;46902;52.920;6.536;2023-07-09T06:48:38;17.38;;;10.25;;
61015;SDS011;46902;52.920;6.536;2023-07-09T06:51:04;15.27;;;10.10;;
61015;SDS011;46902;52.920;6.536;2023-07-09T06:53:29;12.82;;;8.77;;
61015;SDS011;46902;52.920;6.536;2023-07-09T06:55:55;17.00;;;10.55;;
61015;SDS011;46902;52.920;6.536;2023-07-09T06:58:24;13.13;;;9.25;;
61015;SDS011;46902;52.920;6.536;2023-07-09T07:00:52;13.63;;;10.48;;
61015;SDS011;46902;52.920;6.536;2023-07-09T07:03:19;16.00;;;10.15;;
61015;SDS011;46902;52.920;6.536;2023-07-09T07:05:46;11.98;;;9.02;;
61015;SDS011;46902;52.920;6.536;2023-07-09T07:08:19;14.27;;;9.70;;
61015;SDS011;46902;52.920;6.536;2023-07-09T07:10:46;25.13;;;10.52;;
61015;SDS011;46902;52.920;6.536;2023-07-09T07:13:13;13.50;;;9.45;;
61015;SDS011;46902;52.920;6.536;2023-07-09T07:15:39;15.45;;;9.55;;
61015;SDS011;46902;52.920;6.536;2023-07-09T07:18:05;13.25;;;9.13;;
61015;SDS011;46902;52.920;6.536;2023-07-09T07:20:32;13.40;;;9.73;;
61015;SDS011;46902;52.920;6.536;2023-07-09T07:22:58;14.02;;;9.32;;
61015;SDS011;46902;52.920;6.536;2023-07-09T07:25:24;14.25;;;9.50;;
61015;SDS011;46902;52.920;6.536;2023-07-09T07:27:50;15.85;;;9.00;;
61015;SDS011;46902;52.920;6.536;2023-07-09T07:30:16;14.00;;;9.75;;
61015;SDS011;46902;52.920;6.536;2023-07-09T07:32:46;13.45;;;9.10;;
61015;SDS011;46902;52.920;6.536;2023-07-09T07:35:14;12.80;;;9.03;;
61015;SDS011;46902;52.920;6.536;2023-07-09T07:37:40;15.18;;;8.18;;
61015;SDS011;46902;52.920;6.536;2023-07-09T07:40:06;11.98;;;8.88;;
61015;SDS011;46902;52.920;6.536;2023-07-09T07:42:33;13.63;;;9.27;;
61015;SDS011;46902;52.920;6.536;2023-07-09T07:44:58;12.85;;;8.75;;
61015;SDS011;46902;52.920;6.536;2023-07-09T07:47:24;13.07;;;7.60;;
61015;SDS011;46902;52.920;6.536;2023-07-09T07:49:52;13.65;;;8.52;;
61015;SDS011;46902;52.920;6.536;2023-07-09T07:52:18;11.75;;;8.10;;
61015;SDS011;46902;52.920;6.536;2023-07-09T07:54:43;10.85;;;8.18;;
61015;SDS011;46902;52.920;6.536;2023-07-09T07:57:10;13.52;;;8.80;;
61015;SDS011;46902;52.920;6.536;2023-07-09T07:59:36;16.50;;;7.78;;
61015;SDS011;46902;52.920;6.536;2023-07-09T08:02:02;10.30;;;7.47;;
61015;SDS011;46902;52.920;6.536;2023-07-09T08:04:29;11.75;;;7.50;;
61015;SDS011;46902;52.920;6.536;2023-07-09T08:06:54;12.40;;;8.43;;
61015;SDS011;46902;52.920;6.536;2023-07-09T08:09:20;11.57;;;8.52;;
61015;SDS011;46902;52.920;6.536;2023-07-09T08:11:46;12.13;;;7.60;;
61015;SDS011;46902;52.920;6.536;2023-07-09T08:14:12;12.68;;;7.05;;
61015;SDS011;46902;52.920;6.536;2023-07-09T08:16:38;14.10;;;8.27;;
61015;SDS011;46902;52.920;6.536;2023-07-09T08:19:04;9.93;;;7.22;;
61015;SDS011;46902;52.920;6.536;2023-07-09T08:21:30;10.18;;;6.82;;
61015;SDS011;46902;52.920;6.536;2023-07-09T08:23:56;12.20;;;6.90;;
61015;SDS011;46902;52.920;6.536;2023-07-09T08:26:21;11.52;;;7.45;;
61015;SDS011;46902;52.920;6.536;2023-07-09T08:28:49;15.98;;;7.43;;
61015;SDS011;46902;52.920;6.536;2023-07-09T08:31:15;10.45;;;7.28;;
61015;SDS011;46902;52.920;6.536;2023-07-09T08:33:41;12.07;;;6.93;;
61015;SDS011;46902;52.920;6.536;2023-07-09T08:36:06;14.77;;;7.18;;
61015;SDS011;46902;52.920;6.536;2023-07-09T08:38:32;21.55;;;7.35;;
61015;SDS011;46902;52.920;6.536;2023-07-09T08:40:59;11.82;;;7.68;;
61015;SDS011;46902;52.920;6.536;2023-07-09T08:43:33;10.65;;;7.22;;
61015;SDS011;46902;52.920;6.536;2023-07-09T08:46:26;11.55;;;6.93;;
61015;SDS011;46902;52.920;6.536;2023-07-09T08:48:58;12.80;;;7.57;;
61015;SDS011;46902;52.920;6.536;2023-07-09T08:51:37;10.02;;;7.53;;
61015;SDS011;46902;52.920;6.536;2023-07-09T08:54:09;11.25;;;6.50;;
61015;SDS011;46902;52.920;6.536;2023-07-09T08:56:44;10.25;;;6.15;;
61015;SDS011;46902;52.920;6.536;2023-07-09T08:59:11;9.98;;;6.38;;
61015;SDS011;46902;52.920;6.536;2023-07-09T09:01:49;13.40;;;7.20;;
61015;SDS011;46902;52.920;6.536;2023-07-09T09:04:25;9.57;;;5.88;;
61015;SDS011;46902;52.920;6.536;2023-07-09T09:07:06;13.38;;;6.78;;
61015;SDS011;46902;52.920;6.536;2023-07-09T09:09:47;10.00;;;6.50;;
61015;SDS011;46902;52.920;6.536;2023-07-09T09:12:23;10.20;;;5.72;;
61015;SDS011;46902;52.920;6.536;2023-07-09T09:14:58;9.30;;;5.25;;
61015;SDS011;46902;52.920;6.536;2023-07-09T09:17:29;7.93;;;5.18;;
61015;SDS011;46902;52.920;6.536;2023-07-09T09:19:59;7.80;;;5.75;;
61015;SDS011;46902;52.920;6.536;2023-07-09T09:25:31;13.55;;;6.28;;
61015;SDS011;46902;52.920;6.536;2023-07-09T09:28:00;11.15;;;6.35;;
61015;SDS011;46902;52.920;6.536;2023-07-09T09:30:27;9.75;;;6.18;;
61015;SDS011;46902;52.920;6.536;2023-07-09T09:33:06;8.95;;;6.20;;
61015;SDS011;46902;52.920;6.536;2023-07-09T09:35:37;9.68;;;5.80;;
61015;SDS011;46902;52.920;6.536;2023-07-09T09:38:12;12.68;;;5.95;;
61015;SDS011;46902;52.920;6.536;2023-07-09T09:40:41;9.60;;;5.28;;
61015;SDS011;46902;52.920;6.536;2023-07-09T09:43:31;8.95;;;5.35;;
61015;SDS011;46902;52.920;6.536;2023-07-09T09:45:58;9.55;;;4.90;;
61015;SDS011;46902;52.920;6.536;2023-07-09T09:48:27;9.20;;;5.20;;
61015;SDS011;46902;52.920;6.536;2023-07-09T09:50:55;10.35;;;5.63;;
61015;SDS011;46902;52.920;6.536;2023-07-09T09:53:25;10.05;;;5.32;;
61015;SDS011;46902;52.920;6.536;2023-07-09T09:55:53;9.02;;;5.60;;
61015;SDS011;46902;52.920;6.536;2023-07-09T09:58:24;9.80;;;5.47;;
61015;SDS011;46902;52.920;6.536;2023-07-09T10:00:54;9.80;;;6.10;;
61015;SDS011;46902;52.920;6.536;2023-07-09T10:03:20;12.48;;;6.57;;
61015;SDS011;46902;52.920;6.536;2023-07-09T10:05:51;8.70;;;5.40;;
61015;SDS011;46902;52.920;6.536;2023-07-09T10:08:45;9.93;;;6.03;;
61015;SDS011;46902;52.920;6.536;2023-07-09T10:11:18;10.15;;;5.70;;
61015;SDS011;46902;52.920;6.536;2023-07-09T10:13:49;11.68;;;5.78;;
61015;SDS011;46902;52.920;6.536;2023-07-09T10:16:32;9.15;;;5.97;;
61015;SDS011;46902;52.920;6.536;2023-07-09T10:19:14;9.95;;;5.68;;
61015;SDS011;46902;52.920;6.536;2023-07-09T10:27:41;11.65;;;5.80;;
61015;SDS011;46902;52.920;6.536;2023-07-09T10:31:00;11.43;;;5.72;;
61015;SDS011;46902;52.920;6.536;2023-07-09T10:36:20;8.07;;;5.00;;
61015;SDS011;46902;52.920;6.536;2023-07-09T10:39:05;9.65;;;5.53;;
61015;SDS011;46902;52.920;6.536;2023-07-09T10:41:35;8.27;;;4.80;;
61015;SDS011;46902;52.920;6.536;2023-07-09T10:44:10;12.77;;;5.55;;
61015;SDS011;46902;52.920;6.536;2023-07-09T10:46:37;8.40;;;5.07;;
61015;SDS011;46902;52.920;6.536;2023-07-09T10:49:05;8.80;;;5.68;;
61015;SDS011;46902;52.920;6.536;2023-07-09T10:52:01;10.57;;;4.68;;
61015;SDS011;46902;52.920;6.536;2023-07-09T10:54:52;13.02;;;5.15;;
61015;SDS011;46902;52.920;6.536;2023-07-09T10:57:29;8.50;;;5.13;;
61015;SDS011;46902;52.920;6.536;2023-07-09T11:00:17;8.73;;;5.55;;
61015;SDS011;46902;52.920;6.536;2023-07-09T11:02:45;9.90;;;5.85;;
61015;SDS011;46902;52.920;6.536;2023-07-09T11:05:16;9.00;;;5.68;;
61015;SDS011;46902;52.920;6.536;2023-07-09T11:07:44;13.27;;;5.80;;
61015;SDS011;46902;52.920;6.536;2023-07-09T11:10:36;12.50;;;5.80;;
61015;SDS011;46902;52.920;6.536;2023-07-09T11:15:44;8.57;;;5.07;;
61015;SDS011;46902;52.920;6.536;2023-07-09T11:18:13;10.63;;;5.15;;
61015;SDS011;46902;52.920;6.536;2023-07-09T11:20:47;10.70;;;5.43;;
61015;SDS011;46902;52.920;6.536;2023-07-09T11:24:04;10.35;;;5.22;;
61015;SDS011;46902;52.920;6.536;2023-07-09T11:26:28;11.45;;;4.93;;
61015;SDS011;46902;52.920;6.536;2023-07-09T11:29:05;10.00;;;4.60;;
61015;SDS011;46902;52.920;6.536;2023-07-09T11:31:40;8.25;;;4.50;;
61015;SDS011;46902;52.920;6.536;2023-07-09T11:42:02;8.35;;;4.45;;
61015;SDS011;46902;52.920;6.536;2023-07-09T11:44:29;7.15;;;4.45;;
61015;SDS011;46902;52.920;6.536;2023-07-09T11:49:45;8.88;;;4.78;;
61015;SDS011;46902;52.920;6.536;2023-07-09T11:52:28;10.73;;;4.47;;
61015;SDS011;46902;52.920;6.536;2023-07-09T11:54:56;8.85;;;4.80;;
61015;SDS011;46902;52.920;6.536;2023-07-09T11:57:22;8.27;;;4.82;;
61015;SDS011;46902;52.920;6.536;2023-07-09T11:59:48;8.77;;;4.68;;
61015;SDS011;46902;52.920;6.536;2023-07-09T12:02:15;10.52;;;4.50;;
61015;SDS011;46902;52.920;6.536;2023-07-09T12:04:43;10.52;;;4.35;;
61015;SDS011;46902;52.920;6.536;2023-07-09T12:07:09;6.82;;;3.95;;
61015;SDS011;46902;52.920;6.536;2023-07-09T12:09:39;8.43;;;3.90;;
61015;SDS011;46902;52.920;6.536;2023-07-09T12:12:21;8.85;;;4.70;;
61015;SDS011;46902;52.920;6.536;2023-07-09T12:14:51;8.93;;;4.68;;
61015;SDS011;46902;52.920;6.536;2023-07-09T12:17:17;6.68;;;4.43;;
61015;SDS011;46902;52.920;6.536;2023-07-09T12:19:43;8.75;;;4.53;;
61015;SDS011;46902;52.920;6.536;2023-07-09T12:22:15;12.25;;;4.55;;
61015;SDS011;46902;52.920;6.536;2023-07-09T12:24:44;7.95;;;4.28;;
61015;SDS011;46902;52.920;6.536;2023-07-09T12:27:19;10.23;;;3.88;;
61015;SDS011;46902;52.920;6.536;2023-07-09T12:29:46;6.53;;;3.70;;
61015;SDS011;46902;52.920;6.536;2023-07-09T12:32:13;7.78;;;4.22;;
61015;SDS011;46902;52.920;6.536;2023-07-09T12:34:41;8.27;;;4.00;;
61015;SDS011;46902;52.920;6.536;2023-07-09T12:37:09;6.82;;;4.00;;
61015;SDS011;46902;52.920;6.536;2023-07-09T12:39:39;7.43;;;3.95;;
61015;SDS011;46902;52.920;6.536;2023-07-09T12:42:05;10.13;;;4.18;;
61015;SDS011;46902;52.920;6.536;2023-07-09T12:44:45;6.70;;;3.88;;
61015;SDS011;46902;52.920;6.536;2023-07-09T12:47:14;6.70;;;4.40;;
61015;SDS011;46902;52.920;6.536;2023-07-09T12:49:41;7.75;;;4.00;;
61015;SDS011;46902;52.920;6.536;2023-07-09T12:52:18;7.78;;;3.90;;
61015;SDS011;46902;52.920;6.536;2023-07-09T12:55:20;6.15;;;4.03;;
61015;SDS011;46902;52.920;6.536;2023-07-09T12:57:44;8.85;;;4.20;;
61015;SDS011;46902;52.920;6.536;2023-07-09T13:00:16;9.18;;;4.30;;
61015;SDS011;46902;52.920;6.536;2023-07-09T13:02:42;9.15;;;4.32;;
61015;SDS011;46902;52.920;6.536;2023-07-09T13:05:21;7.35;;;4.13;;
61015;SDS011;46902;52.920;6.536;2023-07-09T13:07:53;8.55;;;3.95;;
61015;SDS011;46902;52.920;6.536;2023-07-09T13:10:27;6.20;;;4.07;;
61015;SDS011;46902;52.920;6.536;2023-07-09T13:13:04;8.82;;;4.35;;
61015;SDS011;46902;52.920;6.536;2023-07-09T13:18:02;8.15;;;4.47;;
61015;SDS011;46902;52.920;6.536;2023-07-09T13:20:29;7.70;;;4.35;;
61015;SDS011;46902;52.920;6.536;2023-07-09T13:22:56;9.43;;;4.50;;
61015;SDS011;46902;52.920;6.536;2023-07-09T13:25:22;8.32;;;4.50;;
61015;SDS011;46902;52.920;6.536;2023-07-09T13:27:49;9.05;;;4.45;;
61015;SDS011;46902;52.920;6.536;2023-07-09T13:30:15;7.68;;;4.38;;
61015;SDS011;46902;52.920;6.536;2023-07-09T13:32:41;6.90;;;4.22;;
61015;SDS011;46902;52.920;6.536;2023-07-09T13:35:13;6.47;;;4.18;;
61015;SDS011;46902;52.920;6.536;2023-07-09T13:37:42;6.32;;;4.35;;
61015;SDS011;46902;52.920;6.536;2023-07-09T13:40:09;9.77;;;4.22;;
61015;SDS011;46902;52.920;6.536;2023-07-09T13:42:37;11.20;;;4.25;;
61015;SDS011;46902;52.920;6.536;2023-07-09T13:45:03;9.38;;;4.28;;
61015;SDS011;46902;52.920;6.536;2023-07-09T13:47:29;8.73;;;4.32;;
61015;SDS011;46902;52.920;6.536;2023-07-09T13:49:55;8.50;;;4.40;;
61015;SDS011;46902;52.920;6.536;2023-07-09T13:52:22;7.47;;;4.45;;
61015;SDS011;46902;52.920;6.536;2023-07-09T13:54:50;8.13;;;4.22;;
61015;SDS011;46902;52.920;6.536;2023-07-09T13:57:17;8.82;;;4.88;;
61015;SDS011;46902;52.920;6.536;2023-07-09T13:59:45;9.27;;;4.43;;
61015;SDS011;46902;52.920;6.536;2023-07-09T14:02:20;9.30;;;4.45;;
61015;SDS011;46902;52.920;6.536;2023-07-09T14:04:49;9.48;;;4.40;;
61015;SDS011;46902;52.920;6.536;2023-07-09T14:07:34;6.45;;;4.53;;
61015;SDS011;46902;52.920;6.536;2023-07-09T14:10:03;7.43;;;4.53;;
61015;SDS011;46902;52.920;6.536;2023-07-09T14:12:31;9.93;;;4.57;;
61015;SDS011;46902;52.920;6.536;2023-07-09T14:15:01;6.78;;;4.10;;
61015;SDS011;46902;52.920;6.536;2023-07-09T14:17:27;6.13;;;4.63;;
61015;SDS011;46902;52.920;6.536;2023-07-09T14:19:53;10.07;;;4.20;;
61015;SDS011;46902;52.920;6.536;2023-07-09T14:22:35;8.07;;;4.25;;
61015;SDS011;46902;52.920;6.536;2023-07-09T14:25:03;8.27;;;4.07;;
61015;SDS011;46902;52.920;6.536;2023-07-09T14:27:30;8.70;;;4.72;;
61015;SDS011;46902;52.920;6.536;2023-07-09T14:29:56;6.82;;;3.90;;
61015;SDS011;46902;52.920;6.536;2023-07-09T14:35:05;10.50;;;4.75;;
61015;SDS011;46902;52.920;6.536;2023-07-09T14:37:54;8.52;;;4.40;;
61015;SDS011;46902;52.920;6.536;2023-07-09T14:40:20;8.25;;;4.20;;
61015;SDS011;46902;52.920;6.536;2023-07-09T14:42:47;8.38;;;4.45;;
61015;SDS011;46902;52.920;6.536;2023-07-09T14:47:50;8.15;;;4.60;;
61015;SDS011;46902;52.920;6.536;2023-07-09T14:50:17;6.78;;;4.30;;
61015;SDS011;46902;52.920;6.536;2023-07-09T14:52:44;7.07;;;4.40;;
61015;SDS011;46902;52.920;6.536;2023-07-09T14:57:41;8.73;;;4.95;;
61015;SDS011;46902;52.920;6.536;2023-07-09T15:00:11;8.82;;;4.13;;
61015;SDS011;46902;52.920;6.536;2023-07-09T15:02:39;8.95;;;4.28;;
61015;SDS011;46902;52.920;6.536;2023-07-09T15:05:12;9.57;;;4.35;;
61015;SDS011;46902;52.920;6.536;2023-07-09T15:07:40;11.60;;;5.07;;
61015;SDS011;46902;52.920;6.536;2023-07-09T15:10:06;6.60;;;4.57;;
61015;SDS011;46902;52.920;6.536;2023-07-09T15:12:33;18.95;;;5.65;;
61015;SDS011;46902;52.920;6.536;2023-07-09T15:15:13;42.20;;;7.45;;
61015;SDS011;46902;52.920;6.536;2023-07-09T15:17:45;36.00;;;6.57;;
61015;SDS011;46902;52.920;6.536;2023-07-09T15:20:18;25.38;;;6.03;;
61015;SDS011;46902;52.920;6.536;2023-07-09T15:22:47;25.08;;;5.57;;
61015;SDS011;46902;52.920;6.536;2023-07-09T15:25:19;21.23;;;5.40;;
61015;SDS011;46902;52.920;6.536;2023-07-09T15:27:46;17.67;;;4.97;;
61015;SDS011;46902;52.920;6.536;2023-07-09T15:30:16;18.50;;;5.30;;
61015;SDS011;46902;52.920;6.536;2023-07-09T15:32:44;19.02;;;6.20;;
61015;SDS011;46902;52.920;6.536;2023-07-09T15:35:11;12.43;;;5.63;;